Time;durP1;ratioP1;P1;durP2;ratioP2;P2;SDS_P1;SDS_P2;PMS_P1;PMS_P2;Temp;Humidity;BMP_temperature;BMP_pressure;BME280_temperature;BME280_humidity;BME280_pressure;Samples;Min_cycle;Max_cycle;Signal;HPM_P1;HPM_P2
2022/12/22 03:26:52;;;;;;;15.93;11.63;;;7.60;99.90;;;;;;5025323;28;20187;-49
2022/12/22 03:29:19;;;;;;;14.53;11.07;;;7.70;99.90;;;;;;5017199;28;20212;-46
2022/12/22 03:31:46;;;;;;;15.53;11.40;;;7.60;99.90;;;;;;5030182;28;20199;-48
2022/12/22 03:34:14;;;;;;;16.70;12.00;;;7.70;99.90;;;;;;5027348;28;20245;-47
2022/12/22 03:36:41;;;;;;;15.30;10.63;;;7.60;99.90;;;;;;5022078;28;20227;-43
2022/12/22 03:39:08;;;;;;;16.23;11.33;;;7.60;99.90;;;;;;5046668;28;20219;-48
2022/12/22 03:47:05;;;;;;;13.97;10.33;;;7.70;99.90;;;;;;5038619;28;20202;-46
2022/12/22 03:49:33;;;;;;;17.00;10.57;;;7.70;99.90;;;;;;5026826;28;20196;-51
2022/12/22 03:52:00;;;;;;;15.33;10.90;;;7.70;99.90;;;;;;5028442;28;20212;-44
2022/12/22 03:54:27;;;;;;;16.80;11.33;;;7.70;99.90;;;;;;5021913;28;20587;-44
2022/12/22 03:56:54;;;;;;;13.77;10.70;;;7.70;99.90;;;;;;5025273;28;20195;-54
2022/12/22 03:59:21;;;;;;;15.10;10.47;;;7.60;99.90;;;;;;5025213;28;20203;-44
2022/12/22 04:01:50;;;;;;;12.87;10.13;;;7.70;99.90;;;;;;5015873;28;20204;-52
2022/12/22 04:04:18;;;;;;;12.57;9.83;;;7.70;99.90;;;;;;5027011;28;20223;-50
2022/12/22 04:06:47;;;;;;;15.83;11.13;;;7.70;99.90;;;;;;5026969;28;20199;-49
2022/12/22 04:09:14;;;;;;;15.73;10.13;;;7.70;99.90;;;;;;5025430;28;20200;-46
2022/12/22 04:14:26;;;;;;;15.70;9.93;;;7.70;99.90;;;;;;5024942;28;20219;-51
2022/12/22 04:16:54;;;;;;;16.10;11.33;;;7.70;99.90;;;;;;5019464;28;20199;-47
2022/12/22 04:19:21;;;;;;;17.03;10.43;;;7.70;99.90;;;;;;5028824;28;20192;-52
2022/12/22 04:21:49;;;;;;;15.13;10.43;;;7.70;99.90;;;;;;5021118;28;20201;-50
2022/12/22 04:24:16;;;;;;;16.03;11.50;;;7.70;99.90;;;;;;5027131;28;20226;-50
2022/12/22 04:26:43;;;;;;;16.10;12.10;;;7.70;99.90;;;;;;5026338;28;20192;-42
2022/12/22 04:29:10;;;;;;;19.37;12.83;;;7.70;99.90;;;;;;5026376;28;20208;-45
2022/12/22 04:31:37;;;;;;;18.43;11.87;;;7.70;99.90;;;;;;5013215;28;20219;-44
2022/12/22 04:34:04;;;;;;;18.10;12.67;;;7.70;99.90;;;;;;5029883;28;20215;-45
2022/12/22 04:36:31;;;;;;;20.13;13.33;;;7.70;99.90;;;;;;5027215;28;20655;-49
2022/12/22 04:38:59;;;;;;;24.63;13.40;;;7.70;99.90;;;;;;5026089;28;20211;-45
2022/12/22 04:41:26;;;;;;;18.93;11.87;;;7.70;99.90;;;;;;5021143;28;20215;-49
2022/12/22 04:43:53;;;;;;;17.47;11.70;;;7.80;99.90;;;;;;5024498;28;20978;-42
2022/12/22 04:46:20;;;;;;;17.90;12.33;;;7.80;99.90;;;;;;5024611;28;20203;-53
2022/12/22 04:48:47;;;;;;;21.43;12.70;;;7.70;99.90;;;;;;5024065;28;20790;-41
2022/12/22 04:51:14;;;;;;;19.17;13.37;;;7.70;99.90;;;;;;5029646;28;20223;-45
2022/12/22 04:53:41;;;;;;;17.47;13.00;;;7.80;99.90;;;;;;5019193;28;20234;-42
2022/12/22 04:56:09;;;;;;;21.40;14.33;;;7.80;99.90;;;;;;5029888;28;20658;-44
2022/12/22 04:58:36;;;;;;;18.23;13.50;;;7.80;99.90;;;;;;5021558;28;20196;-42
2022/12/22 05:01:11;;;;;;;19.40;13.30;;;7.80;99.90;;;;;;5025920;28;20250;-44
2022/12/22 05:03:39;;;;;;;19.17;13.30;;;7.80;99.90;;;;;;5017125;28;20976;-48
2022/12/22 05:06:07;;;;;;;20.53;14.50;;;7.80;99.90;;;;;;5032061;28;20196;-41
2022/12/22 05:08:33;;;;;;;19.50;13.83;;;7.80;99.90;;;;;;5021651;28;20630;-52
2022/12/22 05:11:01;;;;;;;20.33;13.53;;;7.80;99.90;;;;;;5025010;28;20231;-54
2022/12/22 05:13:29;;;;;;;18.47;13.20;;;7.80;99.90;;;;;;5027596;28;20971;-47
2022/12/22 05:16:03;;;;;;;20.70;13.63;;;7.80;99.90;;;;;;5024670;28;20204;-44
2022/12/22 05:18:30;;;;;;;19.30;12.90;;;7.70;99.90;;;;;;5015767;28;20211;-50
2022/12/22 05:20:56;;;;;;;20.17;13.07;;;7.80;99.90;;;;;;5025807;28;20206;-41
2022/12/22 05:23:23;;;;;;;17.80;13.07;;;7.70;99.90;;;;;;5028706;28;20237;-45
2022/12/22 05:25:50;;;;;;;21.57;13.40;;;7.80;99.90;;;;;;5023091;28;20202;-41
2022/12/22 05:28:17;;;;;;;20.47;13.20;;;7.70;99.90;;;;;;5032896;28;20215;-41
2022/12/22 05:30:45;;;;;;;18.37;12.63;;;7.70;99.90;;;;;;5024283;28;20281;-50
2022/12/22 05:33:12;;;;;;;19.07;13.20;;;7.80;99.90;;;;;;5024341;28;20226;-42
2022/12/22 05:35:38;;;;;;;19.97;12.73;;;7.80;99.90;;;;;;5035083;28;20662;-49
2022/12/22 05:38:05;;;;;;;19.43;12.93;;;7.80;99.90;;;;;;5042518;28;20202;-43
2022/12/22 05:40:32;;;;;;;18.27;12.60;;;7.80;99.90;;;;;;5031944;28;20211;-53
2022/12/22 05:42:59;;;;;;;18.80;12.70;;;7.80;99.90;;;;;;5028734;28;20211;-42
2022/12/22 05:45:25;;;;;;;16.47;12.43;;;7.80;99.90;;;;;;5030463;28;20203;-48
2022/12/22 05:47:53;;;;;;;19.57;12.33;;;7.80;99.90;;;;;;5010544;28;20208;-47
2022/12/22 05:50:25;;;;;;;17.70;12.70;;;7.80;99.90;;;;;;5028698;28;20231;-41
2022/12/22 05:52:59;;;;;;;20.00;13.53;;;7.80;99.90;;;;;;5029270;28;20238;-50
2022/12/22 05:55:25;;;;;;;18.63;13.17;;;7.80;99.90;;;;;;5032869;28;20195;-44
2022/12/22 05:57:53;;;;;;;21.73;13.07;;;7.80;99.90;;;;;;5033968;28;20214;-44
2022/12/22 06:00:21;;;;;;;24.70;13.60;;;7.80;99.90;;;;;;5021988;28;20215;-41
2022/12/22 06:02:47;;;;;;;25.53;15.33;;;7.80;99.90;;;;;;5030778;28;20227;-42
2022/12/22 06:05:15;;;;;;;22.83;13.17;;;7.80;99.90;;;;;;5014386;28;20219;-50
2022/12/22 06:07:42;;;;;;;19.90;13.00;;;7.80;99.90;;;;;;5026639;28;20257;-43
2022/12/22 06:10:11;;;;;;;18.83;13.37;;;7.90;99.90;;;;;;5024130;28;20262;-51
2022/12/22 06:12:38;;;;;;;19.63;13.30;;;7.80;99.90;;;;;;5030586;28;20772;-41
2022/12/22 06:15:06;;;;;;;22.47;13.97;;;7.80;99.90;;;;;;5024115;28;20199;-49
2022/12/22 06:17:33;;;;;;;25.67;14.50;;;7.80;99.90;;;;;;5030262;28;20200;-43
2022/12/22 06:20:00;;;;;;;22.37;14.27;;;7.80;99.90;;;;;;5022027;28;20566;-51
2022/12/22 06:22:28;;;;;;;25.27;15.20;;;7.90;99.90;;;;;;5030535;28;20206;-47
2022/12/22 06:24:55;;;;;;;26.87;15.90;;;7.80;99.90;;;;;;5025879;28;20283;-43
2022/12/22 06:27:22;;;;;;;26.03;14.37;;;7.90;99.90;;;;;;5028026;28;20269;-41
2022/12/22 06:29:49;;;;;;;27.77;16.40;;;7.90;99.90;;;;;;5030747;28;20275;-46
2022/12/22 06:32:16;;;;;;;26.50;15.23;;;7.90;99.90;;;;;;5020926;28;20245;-48
2022/12/22 06:34:44;;;;;;;32.90;17.77;;;7.90;99.90;;;;;;5017920;28;20299;-43
2022/12/22 06:37:10;;;;;;;37.97;19.00;;;7.90;99.90;;;;;;5030260;28;20212;-52
2022/12/22 06:39:39;;;;;;;44.07;19.17;;;7.90;99.90;;;;;;5032466;28;20218;-47
2022/12/22 06:44:55;;;;;;;37.40;18.27;;;7.90;99.90;;;;;;4984227;28;20394;-51
2022/12/22 06:47:22;;;;;;;34.40;16.67;;;8.00;99.90;;;;;;5029463;28;20219;-46
2022/12/22 06:49:50;;;;;;;34.60;18.10;;;7.90;99.90;;;;;;5016472;28;20211;-53
2022/12/22 06:52:16;;;;;;;34.27;18.23;;;8.00;99.90;;;;;;5036364;28;20218;-45
2022/12/22 06:54:45;;;;;;;34.93;18.57;;;8.00;99.90;;;;;;5027358;28;20800;-45
2022/12/22 06:57:14;;;;;;;29.00;17.40;;;8.00;99.90;;;;;;5021407;28;20673;-50
2022/12/22 06:59:41;;;;;;;34.33;18.10;;;8.00;99.90;;;;;;5021450;28;20896;-41
2022/12/22 07:02:10;;;;;;;31.77;16.80;;;8.00;99.90;;;;;;5022304;28;20732;-48
2022/12/22 07:04:37;;;;;;;34.63;18.20;;;8.00;99.90;;;;;;5021761;28;20223;-53
2022/12/22 07:07:03;;;;;;;32.87;18.73;;;8.00;99.90;;;;;;5020354;28;20873;-43
2022/12/22 07:09:31;;;;;;;40.83;19.30;;;8.00;99.90;;;;;;5037871;28;20215;-41
2022/12/22 07:11:59;;;;;;;45.83;21.67;;;8.00;99.90;;;;;;5034879;28;20951;-47
2022/12/22 07:14:26;;;;;;;39.97;19.33;;;8.00;99.90;;;;;;5041690;28;20393;-47
2022/12/22 07:16:53;;;;;;;30.63;17.00;;;8.00;99.90;;;;;;5026612;28;20555;-49
2022/12/22 07:19:21;;;;;;;27.50;16.13;;;8.00;99.90;;;;;;5020630;28;20253;-45
2022/12/22 07:21:49;;;;;;;27.10;17.03;;;8.00;99.90;;;;;;5024161;28;20253;-42
2022/12/22 07:24:21;;;;;;;25.43;17.00;;;7.90;99.90;;;;;;5018338;28;20216;-41
2022/12/22 07:26:48;;;;;;;25.60;16.60;;;7.90;99.90;;;;;;5026648;28;20226;-48
2022/12/22 07:29:16;;;;;;;29.43;18.27;;;7.90;99.90;;;;;;5027501;28;20688;-45
2022/12/22 07:31:43;;;;;;;33.20;18.43;;;7.90;99.90;;;;;;5018817;28;20214;-44
2022/12/22 07:34:10;;;;;;;37.90;20.00;;;7.90;99.90;;;;;;5025804;28;20219;-53
2022/12/22 07:36:36;;;;;;;39.63;21.70;;;7.90;99.90;;;;;;5024817;28;20187;-45
2022/12/22 07:39:03;;;;;;;34.17;18.53;;;8.00;99.90;;;;;;5023678;28;20242;-50
2022/12/22 07:44:16;;;;;;;25.83;16.60;;;8.00;99.90;;;;;;5024795;28;20733;-50
2022/12/22 07:46:43;;;;;;;32.23;18.83;;;8.00;99.90;;;;;;5036593;28;20195;-44
2022/12/22 07:51:56;;;;;;;31.20;17.87;;;7.90;99.90;;;;;;5017426;28;20219;-44
2022/12/22 07:54:24;;;;;;;34.23;19.73;;;7.90;99.90;;;;;;5028969;28;20234;-49
2022/12/22 07:56:51;;;;;;;33.67;20.17;;;7.90;99.90;;;;;;5039779;28;20207;-47
2022/12/22 07:59:19;;;;;;;38.87;20.63;;;8.00;99.90;;;;;;5039147;28;20191;-50
2022/12/22 08:01:46;;;;;;;37.87;20.57;;;8.00;99.90;;;;;;5044595;28;22094;-50
2022/12/22 08:04:14;;;;;;;39.60;20.33;;;8.00;99.90;;;;;;5031985;28;20218;-51
2022/12/22 08:06:41;;;;;;;41.50;21.90;;;8.00;99.90;;;;;;5022048;28;20211;-44
2022/12/22 08:09:09;;;;;;;34.03;18.90;;;8.00;99.90;;;;;;5031920;28;20203;-54
2022/12/22 08:11:36;;;;;;;40.67;19.77;;;8.00;99.90;;;;;;5032353;28;20219;-42
2022/12/22 08:14:03;;;;;;;42.47;19.90;;;8.00;99.90;;;;;;5035734;28;20230;-52
2022/12/22 08:16:31;;;;;;;43.90;22.23;;;8.00;99.90;;;;;;5033791;28;20197;-50
2022/12/22 08:18:59;;;;;;;34.47;17.93;;;8.00;99.90;;;;;;5038569;28;20191;-51
2022/12/22 08:21:25;;;;;;;36.40;18.30;;;8.00;99.90;;;;;;5011590;28;20203;-47
2022/12/22 08:23:52;;;;;;;27.57;15.87;;;8.00;99.90;;;;;;5028170;28;20230;-49
2022/12/22 08:26:24;;;;;;;25.90;15.70;;;8.00;99.90;;;;;;5028244;28;20226;-47
2022/12/22 08:28:54;;;;;;;27.27;15.37;;;8.00;99.90;;;;;;5029129;28;20690;-43
2022/12/22 08:31:25;;;;;;;23.83;15.60;;;8.00;99.90;;;;;;5036572;28;20247;-42
2022/12/22 08:33:55;;;;;;;29.60;16.83;;;8.00;99.90;;;;;;5032254;28;20686;-41
2022/12/22 08:36:23;;;;;;;33.37;16.70;;;8.00;99.90;;;;;;5030181;28;20899;-41
2022/12/22 08:38:50;;;;;;;30.13;16.70;;;8.00;99.90;;;;;;5017777;28;20261;-43
2022/12/22 08:41:48;;;;;;;34.33;17.27;;;8.00;99.90;;;;;;5033214;28;20651;-53
2022/12/22 08:44:06;;;;;;;24.87;15.67;;;8.00;99.90;;;;;;5034409;28;20219;-52
2022/12/22 08:46:32;;;;;;;23.70;14.80;;;8.00;99.90;;;;;;5028050;28;20270;-43
2022/12/22 08:49:01;;;;;;;19.23;12.70;;;8.10;99.90;;;;;;5034693;28;20208;-47
2022/12/22 08:51:27;;;;;;;28.33;15.00;;;8.00;99.90;;;;;;5026534;28;20986;-43
2022/12/22 08:53:54;;;;;;;22.07;13.33;;;8.00;99.90;;;;;;5018512;28;20223;-41
2022/12/22 08:56:21;;;;;;;33.07;14.90;;;8.10;99.90;;;;;;5023319;28;20207;-43
2022/12/22 08:58:48;;;;;;;17.60;11.97;;;8.00;99.90;;;;;;5038823;28;20646;-46
2022/12/22 09:01:17;;;;;;;18.90;11.47;;;8.10;99.90;;;;;;5040304;28;20191;-55
2022/12/22 09:03:48;;;;;;;21.83;12.20;;;8.10;99.90;;;;;;5039181;28;20223;-43
2022/12/22 09:06:16;;;;;;;18.00;11.97;;;8.10;99.90;;;;;;5025659;28;20210;-55
2022/12/22 09:08:43;;;;;;;13.43;10.33;;;8.10;99.90;;;;;;5022966;28;20203;-41
2022/12/22 09:11:10;;;;;;;13.73;10.57;;;8.00;99.90;;;;;;5024823;28;20206;-51
2022/12/22 09:13:37;;;;;;;14.33;10.03;;;8.00;99.90;;;;;;5037446;28;20241;-43
2022/12/22 09:16:05;;;;;;;12.90;10.13;;;8.10;99.90;;;;;;5030719;28;20199;-55
2022/12/22 09:18:31;;;;;;;15.27;10.57;;;8.10;99.90;;;;;;5032877;28;20200;-42
2022/12/22 09:20:58;;;;;;;15.87;8.77;;;8.00;99.90;;;;;;5035310;28;20210;-52
2022/12/22 09:23:26;;;;;;;11.87;8.83;;;8.00;99.90;;;;;;5024435;28;20307;-48
2022/12/22 09:25:53;;;;;;;15.03;9.07;;;8.10;99.90;;;;;;5008957;28;20199;-50
2022/12/22 09:28:20;;;;;;;13.07;10.27;;;8.10;99.90;;;;;;5033488;28;20183;-42
2022/12/22 09:30:50;;;;;;;16.60;11.30;;;8.10;99.90;;;;;;5037226;28;20274;-51
2022/12/22 09:33:16;;;;;;;13.80;9.47;;;8.10;99.90;;;;;;5025055;28;20223;-44
2022/12/22 09:35:43;;;;;;;13.60;9.57;;;8.20;99.90;;;;;;5032472;28;20290;-52
2022/12/22 09:38:10;;;;;;;13.07;9.00;;;8.20;99.90;;;;;;5023567;28;20211;-43
2022/12/22 09:40:38;;;;;;;13.57;9.67;;;8.20;99.90;;;;;;5017660;28;20306;-50
2022/12/22 09:43:05;;;;;;;12.67;9.60;;;8.20;99.90;;;;;;5026275;28;20215;-48
2022/12/22 09:45:32;;;;;;;12.23;9.20;;;8.20;99.90;;;;;;5039747;28;20593;-46
2022/12/22 09:48:02;;;;;;;13.10;9.47;;;8.20;99.90;;;;;;5029400;28;20214;-51
2022/12/22 09:50:31;;;;;;;13.20;9.03;;;8.20;99.90;;;;;;5029844;28;20218;-41
2022/12/22 09:53:00;;;;;;;16.53;10.03;;;8.20;99.90;;;;;;5023360;28;20736;-49
2022/12/22 09:55:38;;;;;;;15.03;10.40;;;8.20;99.90;;;;;;5033064;28;20196;-44
2022/12/22 09:58:17;;;;;;;17.00;11.33;;;8.20;99.90;;;;;;5006728;28;20242;-45
2022/12/22 10:00:47;;;;;;;16.40;10.80;;;8.20;99.90;;;;;;5040555;28;20210;-52
2022/12/22 10:03:24;;;;;;;17.63;12.13;;;8.20;99.90;;;;;;5025824;28;20214;-48
2022/12/22 10:05:57;;;;;;;19.53;11.63;;;8.10;99.90;;;;;;5035222;28;20195;-52
2022/12/22 10:08:29;;;;;;;19.77;11.87;;;8.10;99.90;;;;;;5035225;28;20203;-43
2022/12/22 10:10:57;;;;;;;21.80;12.83;;;8.10;99.90;;;;;;5019017;28;20214;-55
2022/12/22 10:13:25;;;;;;;22.70;13.30;;;8.20;99.90;;;;;;5010810;28;20242;-54
2022/12/22 10:15:52;;;;;;;19.77;12.97;;;8.10;99.90;;;;;;5026653;28;20199;-42
2022/12/22 10:18:21;;;;;;;23.23;14.00;;;8.20;99.90;;;;;;5032075;28;20204;-42
2022/12/22 10:21:08;;;;;;;19.43;13.37;;;8.20;99.90;;;;;;5021393;28;20195;-47
2022/12/22 10:23:37;;;;;;;23.40;14.20;;;8.20;99.90;;;;;;5022716;28;20599;-47
2022/12/22 10:26:10;;;;;;;23.03;13.33;;;8.20;99.90;;;;;;5025510;28;20214;-54
2022/12/22 10:28:42;;;;;;;20.07;12.53;;;8.30;99.90;;;;;;5013345;28;20717;-42
2022/12/22 10:31:13;;;;;;;21.37;13.23;;;8.30;99.90;;;;;;5029432;28;20204;-50
2022/12/22 10:33:40;;;;;;;22.67;12.83;;;8.30;99.90;;;;;;5033344;28;20235;-42
2022/12/22 10:36:09;;;;;;;20.83;13.30;;;8.30;99.90;;;;;;5027090;28;20218;-45
2022/12/22 10:38:38;;;;;;;22.27;13.97;;;8.40;99.90;;;;;;5038238;28;20211;-45
2022/12/22 10:41:14;;;;;;;23.40;14.17;;;8.40;99.90;;;;;;5024018;28;20204;-48
2022/12/22 10:43:50;;;;;;;25.47;14.17;;;8.40;99.90;;;;;;5017062;28;20716;-42
2022/12/22 10:46:17;;;;;;;23.67;15.13;;;8.40;99.90;;;;;;5029415;28;20943;-43
2022/12/22 10:48:44;;;;;;;25.87;14.83;;;8.40;99.90;;;;;;5032387;28;20208;-42
2022/12/22 10:51:13;;;;;;;22.77;14.10;;;8.40;99.90;;;;;;5019499;28;20201;-46
2022/12/22 10:53:44;;;;;;;24.47;14.53;;;8.40;99.90;;;;;;5037250;28;20268;-44
2022/12/22 10:56:20;;;;;;;24.73;15.47;;;8.40;99.90;;;;;;5014560;28;20504;-45
2022/12/22 10:58:51;;;;;;;23.33;14.73;;;8.40;99.90;;;;;;5007481;28;20294;-55
2022/12/22 11:01:30;;;;;;;26.07;15.57;;;8.40;99.90;;;;;;5027924;28;20290;-43
2022/12/22 11:03:57;;;;;;;26.00;15.80;;;8.40;99.90;;;;;;5023690;28;20869;-41
2022/12/22 11:06:24;;;;;;;23.13;14.23;;;8.40;99.90;;;;;;5028311;28;20195;-43
2022/12/22 11:08:51;;;;;;;26.07;14.93;;;8.30;99.90;;;;;;5028379;28;20207;-50
2022/12/22 11:11:30;;;;;;;28.13;14.70;;;8.30;99.90;;;;;;5033874;28;20191;-43
2022/12/22 11:14:06;;;;;;;28.50;15.20;;;8.40;99.90;;;;;;5012601;28;20914;-44
2022/12/22 11:16:39;;;;;;;24.07;14.20;;;8.30;99.90;;;;;;5026669;28;20761;-42
2022/12/22 11:19:19;;;;;;;24.37;14.63;;;8.40;99.90;;;;;;5029169;28;20263;-51
2022/12/22 11:21:51;;;;;;;22.67;15.03;;;8.40;99.90;;;;;;5028026;28;20252;-46
2022/12/22 11:24:31;;;;;;;22.23;14.53;;;8.40;99.90;;;;;;5022834;28;20232;-53
2022/12/22 11:27:13;;;;;;;24.23;15.27;;;8.40;99.90;;;;;;5032495;28;20203;-49
2022/12/22 11:30:01;;;;;;;21.97;14.23;;;8.40;99.90;;;;;;5015302;28;20437;-44
2022/12/22 11:32:49;;;;;;;21.87;14.97;;;8.40;99.90;;;;;;5029471;28;20219;-48
2022/12/22 11:35:22;;;;;;;22.13;14.10;;;8.40;99.90;;;;;;5035291;28;20199;-52
2022/12/22 11:37:55;;;;;;;22.17;13.80;;;8.40;99.90;;;;;;5035354;28;20561;-47
2022/12/22 11:40:31;;;;;;;25.97;14.17;;;8.50;99.90;;;;;;5028361;28;20218;-53
2022/12/22 11:43:33;;;;;;;22.47;14.17;;;8.50;99.90;;;;;;5028271;28;20223;-44
2022/12/22 11:46:16;;;;;;;22.57;14.20;;;8.60;99.90;;;;;;5017845;28;20558;-50
2022/12/22 11:49:13;;;;;;;20.77;13.73;;;8.60;99.90;;;;;;5040111;28;20199;-41
2022/12/22 11:51:56;;;;;;;61.03;24.63;;;8.60;99.90;;;;;;5036757;28;20208;-43
2022/12/22 11:54:41;;;;;;;20.37;12.87;;;8.70;99.90;;;;;;5030481;28;20219;-53
2022/12/22 11:57:18;;;;;;;20.60;13.27;;;8.70;99.90;;;;;;5031891;28;20211;-51
2022/12/22 11:59:57;;;;;;;20.90;13.00;;;8.70;99.90;;;;;;5042615;28;20293;-43
2022/12/22 12:02:57;;;;;;;20.30;12.37;;;8.70;99.90;;;;;;5019784;28;20199;-42
2022/12/22 12:05:38;;;;;;;14.70;10.27;;;8.70;99.90;;;;;;5035095;28;20778;-47
2022/12/22 12:08:14;;;;;;;15.70;10.90;;;8.70;99.90;;;;;;5033000;28;20274;-45
2022/12/22 12:10:45;;;;;;;15.07;10.10;;;8.60;99.90;;;;;;5026970;28;20281;-51
2022/12/22 12:13:24;;;;;;;16.80;11.33;;;8.60;99.90;;;;;;5025214;28;20222;-41
2022/12/22 12:15:56;;;;;;;13.83;9.57;;;8.60;99.90;;;;;;5022552;28;20218;-46
2022/12/22 12:18:42;;;;;;;16.10;10.23;;;8.60;99.90;;;;;;5039767;28;20200;-52
2022/12/22 12:21:24;;;;;;;15.53;10.07;;;8.60;99.90;;;;;;5040493;28;20545;-43
2022/12/22 12:24:23;;;;;;;14.17;9.73;;;8.60;99.90;;;;;;5023553;28;20216;-43
2022/12/22 12:26:59;;;;;;;15.03;9.87;;;8.50;99.90;;;;;;5027779;28;20294;-44
2022/12/22 12:29:29;;;;;;;16.43;10.23;;;8.60;99.90;;;;;;5026731;28;20202;-49
2022/12/22 12:32:00;;;;;;;16.43;10.83;;;8.50;99.90;;;;;;5023683;28;20208;-42
2022/12/22 12:34:33;;;;;;;16.23;10.60;;;8.50;99.90;;;;;;5038002;28;20215;-50
2022/12/22 12:37:08;;;;;;;21.63;10.77;;;8.50;99.90;;;;;;5030966;28;20296;-47
2022/12/22 12:39:39;;;;;;;20.40;10.57;;;8.60;99.90;;;;;;5027597;28;20276;-43
2022/12/22 12:42:27;;;;;;;17.37;10.93;;;8.60;99.90;;;;;;5030847;28;20195;-41
2022/12/22 12:44:55;;;;;;;15.80;10.50;;;8.60;99.90;;;;;;5026700;28;20293;-41
2022/12/22 12:47:27;;;;;;;17.77;10.43;;;8.60;99.90;;;;;;5031950;28;20274;-50
2022/12/22 12:50:00;;;;;;;15.93;10.53;;;8.60;99.90;;;;;;5035656;28;20191;-40
2022/12/22 12:53:14;;;;;;;15.07;9.90;;;8.60;99.90;;;;;;5035800;28;20592;-50
2022/12/22 12:56:01;;;;;;;14.63;9.87;;;8.70;99.90;;;;;;5031510;28;20207;-41
2022/12/22 12:58:53;;;;;;;17.73;10.40;;;8.80;99.90;;;;;;5032488;28;20202;-50
2022/12/22 13:01:57;;;;;;;16.23;10.43;;;8.80;99.90;;;;;;5031356;28;20207;-51
2022/12/22 13:05:06;;;;;;;16.57;10.33;;;8.80;99.90;;;;;;5018045;28;20227;-49
2022/12/22 13:08:06;;;;;;;12.53;9.07;;;8.90;99.90;;;;;;5035377;28;20208;-49
2022/12/22 13:10:36;;;;;;;13.43;9.33;;;9.00;99.90;;;;;;5027580;28;20203;-43
2022/12/22 13:13:03;;;;;;;11.93;8.40;;;9.00;99.90;;;;;;5033368;28;20277;-50
2022/12/22 13:15:31;;;;;;;12.90;7.23;;;9.00;99.90;;;;;;5025887;28;20192;-43
2022/12/22 13:17:59;;;;;;;12.63;6.97;;;9.00;99.90;;;;;;5028787;28;20195;-48
2022/12/22 13:20:29;;;;;;;10.57;5.77;;;9.00;99.90;;;;;;5020668;28;20218;-44
2022/12/22 13:22:58;;;;;;;10.20;6.20;;;9.00;99.90;;;;;;5033154;28;20207;-52
2022/12/22 13:25:40;;;;;;;8.20;6.17;;;9.00;99.90;;;;;;5027563;28;20214;-43
2022/12/22 13:28:14;;;;;;;12.13;5.83;;;8.90;99.90;;;;;;5029673;28;20184;-43
2022/12/22 13:30:46;;;;;;;11.83;5.63;;;8.90;99.90;;;;;;5055096;28;20236;-50
2022/12/22 13:33:17;;;;;;;10.90;5.43;;;9.00;99.90;;;;;;5037221;28;20851;-42
2022/12/22 13:35:46;;;;;;;7.93;5.70;;;8.90;99.90;;;;;;5010239;28;20212;-49
2022/12/22 13:38:28;;;;;;;14.27;6.40;;;8.90;99.90;;;;;;5024298;28;20658;-42
2022/12/22 13:40:56;;;;;;;7.87;5.00;;;8.90;99.90;;;;;;5025670;28;20214;-41
2022/12/22 13:43:26;;;;;;;12.33;5.70;;;8.90;99.90;;;;;;5026594;28;20227;-43
2022/12/22 13:45:55;;;;;;;10.33;5.27;;;8.80;99.90;;;;;;5018729;28;21685;-44
2022/12/22 13:48:27;;;;;;;10.50;5.27;;;8.80;99.90;;;;;;5039828;28;20195;-45
2022/12/22 13:50:57;;;;;;;10.07;5.60;;;8.80;99.90;;;;;;5015768;28;21355;-44
2022/12/22 13:53:31;;;;;;;11.20;5.67;;;8.80;99.90;;;;;;5032908;28;20228;-42
2022/12/22 13:56:00;;;;;;;9.47;5.90;;;8.80;99.90;;;;;;5023708;28;20203;-47
2022/12/22 13:58:30;;;;;;;13.30;5.47;;;8.70;99.90;;;;;;5029948;28;20200;-48
2022/12/22 14:01:13;;;;;;;9.30;5.03;;;8.70;99.90;;;;;;5027518;28;20231;-43
2022/12/22 14:03:46;;;;;;;12.30;5.30;;;8.70;99.90;;;;;;5027797;28;20265;-51
2022/12/22 14:06:28;;;;;;;11.80;5.23;;;8.70;99.90;;;;;;5039185;28;20207;-46
2022/12/22 14:09:10;;;;;;;13.57;5.47;;;8.70;99.90;;;;;;5025446;28;20218;-49
2022/12/22 14:11:38;;;;;;;14.57;5.50;;;8.60;99.90;;;;;;5033775;28;20195;-52
2022/12/22 14:14:07;;;;;;;11.50;5.70;;;8.60;99.90;;;;;;5040092;28;20310;-43
2022/12/22 14:16:35;;;;;;;11.00;5.53;;;8.50;99.90;;;;;;5026964;28;20210;-51
2022/12/22 14:19:01;;;;;;;10.83;5.17;;;8.50;99.90;;;;;;5026884;28;20194;-44
2022/12/22 14:21:28;;;;;;;10.73;5.47;;;8.50;99.90;;;;;;5025406;28;20672;-51
2022/12/22 14:23:56;;;;;;;12.10;5.23;;;8.40;99.90;;;;;;5023671;28;20226;-44
2022/12/22 14:26:28;;;;;;;12.47;5.70;;;8.40;99.90;;;;;;5029519;28;20209;-46
2022/12/22 14:28:57;;;;;;;15.87;6.17;;;8.30;99.90;;;;;;5032592;28;20206;-43
2022/12/22 14:31:24;;;;;;;10.97;5.93;;;8.30;99.90;;;;;;5027130;28;20207;-46
2022/12/22 14:33:53;;;;;;;9.77;6.30;;;8.20;99.90;;;;;;5026070;28;20305;-41
2022/12/22 14:36:23;;;;;;;12.90;6.00;;;8.20;99.90;;;;;;5035545;28;20256;-51
2022/12/22 14:38:52;;;;;;;10.37;5.57;;;8.10;99.90;;;;;;5013643;28;20284;-41
2022/12/22 14:41:41;;;;;;;11.33;5.63;;;8.10;99.90;;;;;;5037366;28;20211;-45
2022/12/22 14:44:19;;;;;;;11.47;5.87;;;8.10;99.90;;;;;;5026449;28;20590;-40
2022/12/22 14:47:01;;;;;;;10.53;6.23;;;8.00;99.90;;;;;;5027525;28;20218;-43
2022/12/22 14:49:28;;;;;;;11.30;5.87;;;8.00;99.90;;;;;;5029773;28;20200;-50
2022/12/22 14:51:56;;;;;;;13.37;5.60;;;7.90;99.90;;;;;;5038682;28;20286;-43
2022/12/22 14:54:26;;;;;;;10.37;6.57;;;7.80;99.90;;;;;;5016503;28;20273;-52
2022/12/22 14:57:02;;;;;;;16.40;6.13;;;7.80;99.90;;;;;;5027950;28;20211;-46
2022/12/22 14:59:31;;;;;;;11.87;5.87;;;7.80;99.90;;;;;;5026960;28;20200;-47
2022/12/22 15:02:00;;;;;;;11.17;5.60;;;7.70;99.90;;;;;;5018373;28;20196;-46
2022/12/22 15:04:28;;;;;;;13.03;6.23;;;7.70;99.90;;;;;;5031389;28;20222;-43
2022/12/22 15:07:07;;;;;;;8.73;5.40;;;7.60;99.90;;;;;;5035111;28;20200;-53
2022/12/22 15:09:34;;;;;;;12.60;5.60;;;7.50;99.90;;;;;;5023282;28;20203;-47
2022/12/22 15:12:10;;;;;;;15.23;6.40;;;7.50;99.90;;;;;;5033538;28;20242;-47
2022/12/22 15:14:40;;;;;;;12.47;5.50;;;7.40;99.90;;;;;;5030873;28;20237;-49
2022/12/22 15:17:19;;;;;;;11.97;6.77;;;7.30;99.90;;;;;;5032844;28;20195;-45
2022/12/22 15:19:46;;;;;;;12.03;6.07;;;7.30;99.90;;;;;;5034110;28;20218;-51
2022/12/22 15:22:12;;;;;;;13.93;6.83;;;7.20;99.90;;;;;;5031217;28;20878;-46
2022/12/22 15:24:39;;;;;;;11.27;5.87;;;7.10;99.90;;;;;;5022539;28;20226;-52
2022/12/22 15:27:06;;;;;;;13.37;6.17;;;7.10;99.90;;;;;;5036263;28;20191;-41
2022/12/22 15:29:33;;;;;;;15.47;7.57;;;7.00;99.90;;;;;;5038027;28;20254;-47
2022/12/22 15:32:01;;;;;;;19.47;7.13;;;7.00;99.90;;;;;;5028314;28;20257;-47
2022/12/22 15:34:30;;;;;;;18.83;6.67;;;7.00;99.90;;;;;;5035207;28;20255;-46
2022/12/22 15:36:57;;;;;;;14.90;7.07;;;6.90;99.90;;;;;;5026735;28;20206;-42
2022/12/22 15:39:24;;;;;;;9.57;5.83;;;6.80;99.90;;;;;;5026913;28;20689;-41
2022/12/22 15:41:51;;;;;;;14.67;7.20;;;6.80;99.90;;;;;;5030228;28;20227;-51
2022/12/22 15:44:20;;;;;;;16.67;6.77;;;6.80;99.90;;;;;;5037972;28;20212;-42
2022/12/22 15:46:54;;;;;;;15.57;6.77;;;6.80;99.90;;;;;;5026905;28;20204;-40
2022/12/22 15:49:25;;;;;;;14.88;8.10;;;6.70;99.90;;;;;;5037402;28;20475;-49
2022/12/22 15:51:55;;;;;;;14.87;6.43;;;6.90;99.90;;;;;;5024365;28;20346;-41
2022/12/22 15:54:25;;;;;;;14.57;6.70;;;6.80;99.90;;;;;;5025028;28;20303;-47
2022/12/22 15:56:53;;;;;;;21.47;7.73;;;6.80;99.90;;;;;;5029978;28;20802;-46
2022/12/22 15:59:24;;;;;;;17.57;7.27;;;6.70;99.90;;;;;;5036094;28;20550;-51
2022/12/22 16:01:51;;;;;;;10.50;6.17;;;6.70;99.90;;;;;;5033647;28;20195;-48
2022/12/22 16:04:19;;;;;;;14.90;6.83;;;6.60;99.90;;;;;;5036364;28;20291;-54
2022/12/22 16:06:49;;;;;;;14.27;7.10;;;6.60;99.90;;;;;;5025428;28;20341;-46
2022/12/22 16:09:21;;;;;;;18.27;8.47;;;6.70;99.90;;;;;;5030688;28;20193;-56
2022/12/22 16:11:49;;;;;;;13.63;6.50;;;6.60;99.90;;;;;;5032346;28;20269;-47
2022/12/22 16:14:18;;;;;;;16.20;7.20;;;6.60;99.90;;;;;;5026087;28;20227;-53
2022/12/22 16:16:46;;;;;;;13.77;6.47;;;6.60;99.90;;;;;;5031607;28;20235;-52
2022/12/22 16:19:14;;;;;;;9.60;6.20;;;6.60;99.90;;;;;;5033840;28;20616;-53
2022/12/22 16:21:42;;;;;;;25.20;13.73;;;6.60;99.90;;;;;;5025432;28;20211;-51
2022/12/22 16:24:22;;;;;;;21.37;13.53;;;6.60;99.90;;;;;;5039505;28;20203;-43
2022/12/22 16:26:49;;;;;;;18.90;9.30;;;6.60;99.90;;;;;;5011125;28;20279;-47
2022/12/22 16:29:16;;;;;;;17.43;8.17;;;6.60;99.90;;;;;;5033004;28;20210;-44
2022/12/22 16:31:43;;;;;;;14.33;7.70;;;6.50;99.90;;;;;;5028663;28;20989;-53
2022/12/22 16:34:11;;;;;;;15.00;8.50;;;6.50;99.90;;;;;;5041307;28;20218;-46
2022/12/22 16:36:38;;;;;;;27.10;10.57;;;6.40;99.90;;;;;;5028465;28;20230;-52
2022/12/22 16:39:05;;;;;;;18.10;9.57;;;6.40;99.90;;;;;;5035600;28;20233;-46
2022/12/22 16:41:34;;;;;;;18.10;9.50;;;6.40;99.90;;;;;;5015178;28;20218;-52